sensor_id;sensor_type;location;lat;lon;timestamp;pressure;altitude;pressure_sealevel;temperature;humidity
57990;BME280;58373;51.824;5.564;2023-03-23T00:02:12;100149.69;;;10.32;100.00
57990;BME280;58373;51.824;5.564;2023-03-23T00:04:38;100152.13;;;10.24;100.00
57990;BME280;58373;51.824;5.564;2023-03-23T00:07:03;100168.50;;;10.25;100.00
57990;BME280;58373;51.824;5.564;2023-03-23T00:09:28;100160.59;;;10.26;100.00
57990;BME280;58373;51.824;5.564;2023-03-23T00:11:54;100176.97;;;10.27;100.00
57990;BME280;58373;51.824;5.564;2023-03-23T00:14:21;100171.78;;;10.27;100.00
57990;BME280;58373;51.824;5.564;2023-03-23T00:16:48;100178.59;;;10.28;100.00
57990;BME280;58373;51.824;5.564;2023-03-23T00:19:14;100168.25;;;10.28;100.00
57990;BME280;58373;51.824;5.564;2023-03-23T00:21:40;100163.06;;;10.28;100.00
57990;BME280;58373;51.824;5.564;2023-03-23T00:24:08;100169.06;;;10.28;100.00
57990;BME280;58373;51.824;5.564;2023-03-23T00:26:35;100169.06;;;10.28;100.00
57990;BME280;58373;51.824;5.564;2023-03-23T00:29:01;100167.69;;;10.34;100.00
57990;BME280;58373;51.824;5.564;2023-03-23T00:31:27;100175.06;;;10.29;100.00
57990;BME280;58373;51.824;5.564;2023-03-23T00:33:58;100177.78;;;10.27;100.00
57990;BME280;58373;51.824;5.564;2023-03-23T00:36:26;100189.78;;;10.28;100.00
57990;BME280;58373;51.824;5.564;2023-03-23T00:38:51;100189.78;;;10.28;100.00
57990;BME280;58373;51.824;5.564;2023-03-23T00:41:17;100177.78;;;10.27;100.00
57990;BME280;58373;51.824;5.564;2023-03-23T00:43:42;100178.31;;;10.31;100.00
57990;BME280;58373;51.824;5.564;2023-03-23T00:46:08;100181.19;;;10.28;100.00
57990;BME280;58373;51.824;5.564;2023-03-23T00:48:35;100176.97;;;10.27;100.00
57990;BME280;58373;51.824;5.564;2023-03-23T00:51:01;100174.75;;;10.22;100.00
57990;BME280;58373;51.824;5.564;2023-03-23T00:53:30;100178.88;;;10.25;100.00
57990;BME280;58373;51.824;5.564;2023-03-23T00:55:56;100172.06;;;10.24;100.00
57990;BME280;58373;51.824;5.564;2023-03-23T00:58:21;100118.56;;;10.23;100.00
57990;BME280;58373;51.824;5.564;2023-03-23T01:00:46;100078.75;;;10.24;100.00
57990;BME280;58373;51.824;5.564;2023-03-23T01:03:11;100087.47;;;10.23;100.00
57990;BME280;58373;51.824;5.564;2023-03-23T01:05:43;100089.25;;;10.22;100.00
57990;BME280;58373;51.824;5.564;2023-03-23T01:08:08;100085.84;;;10.22;100.00
57990;BME280;58373;51.824;5.564;2023-03-23T01:10:35;100092.00;;;10.21;100.00
57990;BME280;58373;51.824;5.564;2023-03-23T01:13:04;100099.75;;;10.21;100.00
57990;BME280;58373;51.824;5.564;2023-03-23T01:15:30;100094.56;;;10.21;100.00
57990;BME280;58373;51.824;5.564;2023-03-23T01:17:55;100092.91;;;10.20;100.00
57990;BME280;58373;51.824;5.564;2023-03-23T01:20:20;100103.28;;;10.20;100.00
57990;BME280;58373;51.824;5.564;2023-03-23T01:22:46;100084.22;;;10.21;100.00
57990;BME280;58373;51.824;5.564;2023-03-23T01:25:12;100064.16;;;10.23;100.00
57990;BME280;58373;51.824;5.564;2023-03-23T01:27:37;100065.81;;;10.24;100.00
57990;BME280;58373;51.824;5.564;2023-03-23T01:30:03;100064.84;;;10.25;100.00
57990;BME280;58373;51.824;5.564;2023-03-23T01:32:29;100075.22;;;10.25;100.00
57990;BME280;58373;51.824;5.564;2023-03-23T01:34:54;100044.09;;;10.25;100.00
57990;BME280;58373;51.824;5.564;2023-03-23T01:37:20;100059.66;;;10.25;100.00
57990;BME280;58373;51.824;5.564;2023-03-23T01:39:50;100056.09;;;10.26;100.00
57990;BME280;58373;51.824;5.564;2023-03-23T01:42:16;100067.28;;;10.26;100.00
57990;BME280;58373;51.824;5.564;2023-03-23T01:47:10;100061.00;;;10.29;100.00
57990;BME280;58373;51.824;5.564;2023-03-23T01:49:36;100058.28;;;10.30;100.00
57990;BME280;58373;51.824;5.564;2023-03-23T01:52:04;100065.91;;;10.32;100.00
57990;BME280;58373;51.824;5.564;2023-03-23T01:54:30;100062.66;;;10.30;100.00
57990;BME280;58373;51.824;5.564;2023-03-23T01:56:59;100058.28;;;10.30;100.00
57990;BME280;58373;51.824;5.564;2023-03-23T01:59:26;100052.28;;;10.30;100.00
57990;BME280;58373;51.824;5.564;2023-03-23T02:01:53;100057.47;;;10.30;100.00
57990;BME280;58373;51.824;5.564;2023-03-23T02:04:18;100056.66;;;10.29;100.00
57990;BME280;58373;51.824;5.564;2023-03-23T02:06:44;100061.56;;;10.32;100.00
57990;BME280;58373;51.824;5.564;2023-03-23T02:09:10;100044.63;;;10.38;100.00
57990;BME280;58373;51.824;5.564;2023-03-23T02:11:35;100047.88;;;10.40;100.00
57990;BME280;58373;51.824;5.564;2023-03-23T02:14:01;100042.69;;;10.40;100.00
57990;BME280;58373;51.824;5.564;2023-03-23T02:24:15;100033.69;;;10.44;100.00
57990;BME280;58373;51.824;5.564;2023-03-23T02:31:56;100035.81;;;10.49;100.00
57990;BME280;58373;51.824;5.564;2023-03-23T02:34:29;100052.19;;;10.49;100.00
57990;BME280;58373;51.824;5.564;2023-03-23T02:37:03;100045.09;;;10.51;100.00
57990;BME280;58373;51.824;5.564;2023-03-23T02:39:33;100053.53;;;10.53;100.00
57990;BME280;58373;51.824;5.564;2023-03-23T02:44:28;100058.16;;;10.59;100.00
57990;BME280;58373;51.824;5.564;2023-03-23T02:46:55;100054.09;;;10.57;99.81
57990;BME280;58373;51.824;5.564;2023-03-23T02:49:21;100043.13;;;10.63;100.00
57990;BME280;58373;51.824;5.564;2023-03-23T02:51:47;100033.56;;;10.63;99.73
57990;BME280;58373;51.824;5.564;2023-03-23T02:54:13;100045.19;;;10.59;100.00
57990;BME280;58373;51.824;5.564;2023-03-23T02:56:40;100021.84;;;10.59;99.63
57990;BME280;58373;51.824;5.564;2023-03-23T02:59:05;100030.81;;;10.65;99.39
57990;BME280;58373;51.824;5.564;2023-03-23T03:03:57;100032.31;;;10.68;98.89
57990;BME280;58373;51.824;5.564;2023-03-23T03:06:46;100026.44;;;10.66;99.03
57990;BME280;58373;51.824;5.564;2023-03-23T03:09:18;100031.94;;;10.62;99.75
57990;BME280;58373;51.824;5.564;2023-03-23T03:11:49;100033.25;;;10.67;98.54
57990;BME280;58373;51.824;5.564;2023-03-23T03:14:21;100033.00;;;10.70;99.24
57990;BME280;58373;51.824;5.564;2023-03-23T03:16:53;100029.03;;;10.66;98.92
57990;BME280;58373;51.824;5.564;2023-03-23T03:19:32;100036.00;;;10.65;99.36
57990;BME280;58373;51.824;5.564;2023-03-23T03:22:00;100030.81;;;10.65;98.51
57990;BME280;58373;51.824;5.564;2023-03-23T03:24:27;100034.38;;;10.64;98.97
57990;BME280;58373;51.824;5.564;2023-03-23T03:26:53;100036.56;;;10.69;98.97
57990;BME280;58373;51.824;5.564;2023-03-23T03:29:23;100030.00;;;10.64;99.03
57990;BME280;58373;51.824;5.564;2023-03-23T03:31:50;100041.97;;;10.75;97.78
57990;BME280;58373;51.824;5.564;2023-03-23T03:34:16;100034.63;;;10.71;98.78
57990;BME280;58373;51.824;5.564;2023-03-23T03:36:42;100025.81;;;10.81;97.64
57990;BME280;58373;51.824;5.564;2023-03-23T03:39:09;100026.84;;;10.71;98.40
57990;BME280;58373;51.824;5.564;2023-03-23T03:41:35;100040.78;;;10.70;97.99
57990;BME280;58373;51.824;5.564;2023-03-23T03:44:01;100037.91;;;10.73;97.78
57990;BME280;58373;51.824;5.564;2023-03-23T03:46:26;100032.72;;;10.73;98.00
57990;BME280;58373;51.824;5.564;2023-03-23T03:48:54;100040.63;;;10.89;95.69
57990;BME280;58373;51.824;5.564;2023-03-23T03:51:21;100035.66;;;10.78;97.01
57990;BME280;58373;51.824;5.564;2023-03-23T03:53:46;100021.75;;;10.79;96.75
57990;BME280;58373;51.824;5.564;2023-03-23T03:56:11;100031.81;;;10.82;96.64
57990;BME280;58373;51.824;5.564;2023-03-23T03:58:38;100029.06;;;10.83;96.54
57990;BME280;58373;51.824;5.564;2023-03-23T04:01:03;100026.56;;;10.92;95.36
57990;BME280;58373;51.824;5.564;2023-03-23T04:03:29;100026.63;;;10.82;95.93
57990;BME280;58373;51.824;5.564;2023-03-23T04:05:54;100029.91;;;10.84;95.48
57990;BME280;58373;51.824;5.564;2023-03-23T04:08:24;100023.22;;;10.81;96.17
57990;BME280;58373;51.824;5.564;2023-03-23T04:10:51;100019.81;;;10.81;95.70
57990;BME280;58373;51.824;5.564;2023-03-23T04:13:17;100027.59;;;10.81;95.93
57990;BME280;58373;51.824;5.564;2023-03-23T04:15:43;100016.25;;;10.82;95.63
57990;BME280;58373;51.824;5.564;2023-03-23T04:18:09;100029.06;;;10.83;95.56
57990;BME280;58373;51.824;5.564;2023-03-23T04:20:34;100029.59;;;10.87;95.05
57990;BME280;58373;51.824;5.564;2023-03-23T04:22:59;100029.84;;;10.94;94.32
57990;BME280;58373;51.824;5.564;2023-03-23T04:25:25;100041.03;;;10.94;93.54
57990;BME280;58373;51.824;5.564;2023-03-23T04:27:51;100042.09;;;11.01;93.17
57990;BME280;58373;51.824;5.564;2023-03-23T04:30:20;100045.34;;;11.03;92.62
57990;BME280;58373;51.824;5.564;2023-03-23T04:32:46;100051.72;;;10.91;92.92
57990;BME280;58373;51.824;5.564;2023-03-23T04:35:15;100050.81;;;11.00;92.23
57990;BME280;58373;51.824;5.564;2023-03-23T04:37:41;100046.53;;;10.91;93.23
57990;BME280;58373;51.824;5.564;2023-03-23T04:40:08;100060.16;;;10.93;92.44
57990;BME280;58373;51.824;5.564;2023-03-23T04:42:39;100066.16;;;10.94;92.95
57990;BME280;58373;51.824;5.564;2023-03-23T04:45:05;100065.88;;;10.97;92.18
57990;BME280;58373;51.824;5.564;2023-03-23T04:47:32;100069.19;;;10.89;93.13
57990;BME280;58373;51.824;5.564;2023-03-23T04:49:57;100072.75;;;10.88;93.01
57990;BME280;58373;51.824;5.564;2023-03-23T04:52:26;100079.94;;;10.94;91.82
57990;BME280;58373;51.824;5.564;2023-03-23T04:54:53;100076.69;;;10.92;91.08
57990;BME280;58373;51.824;5.564;2023-03-23T04:57:18;100060.47;;;10.90;91.88
57990;BME280;58373;51.824;5.564;2023-03-23T04:59:44;100053.03;;;10.95;90.89
57990;BME280;58373;51.824;5.564;2023-03-23T05:02:10;100061.03;;;10.84;91.76
57990;BME280;58373;51.824;5.564;2023-03-23T05:04:35;100062.38;;;10.88;92.07
57990;BME280;58373;51.824;5.564;2023-03-23T05:07:02;100055.84;;;10.84;91.38
57990;BME280;58373;51.824;5.564;2023-03-23T05:09:27;100050.66;;;10.84;91.41
57990;BME280;58373;51.824;5.564;2023-03-23T05:11:52;100060.75;;;10.87;92.01
57990;BME280;58373;51.824;5.564;2023-03-23T05:14:18;100057.38;;;10.77;91.91
57990;BME280;58373;51.824;5.564;2023-03-23T05:16:43;100055.56;;;10.87;90.76
57990;BME280;58373;51.824;5.564;2023-03-23T05:19:13;100060.78;;;10.77;91.83
57990;BME280;58373;51.824;5.564;2023-03-23T05:21:39;100073.25;;;10.74;91.71
57990;BME280;58373;51.824;5.564;2023-03-23T05:24:05;100073.53;;;10.71;91.91
57990;BME280;58373;51.824;5.564;2023-03-23T05:26:30;100070.34;;;10.77;91.22
57990;BME280;58373;51.824;5.564;2023-03-23T05:28:55;100061.38;;;10.71;91.40
57990;BME280;58373;51.824;5.564;2023-03-23T05:31:21;100068.44;;;10.79;91.40
57990;BME280;58373;51.824;5.564;2023-03-23T05:33:46;100076.94;;;10.71;92.20
57990;BME280;58373;51.824;5.564;2023-03-23T05:36:12;100077.75;;;10.72;91.93
57990;BME280;58373;51.824;5.564;2023-03-23T05:38:39;100071.22;;;10.68;92.51
57990;BME280;58373;51.824;5.564;2023-03-23T05:41:07;100078.84;;;10.69;92.43
57990;BME280;58373;51.824;5.564;2023-03-23T05:43:32;100074.88;;;10.75;91.90
57990;BME280;58373;51.824;5.564;2023-03-23T05:45:57;100070.34;;;10.77;90.71
57990;BME280;58373;51.824;5.564;2023-03-23T05:48:22;100078.84;;;10.69;91.14
57990;BME280;58373;51.824;5.564;2023-03-23T05:50:48;100071.75;;;10.71;91.16
57990;BME280;58373;51.824;5.564;2023-03-23T05:53:13;100077.75;;;10.72;91.02
57990;BME280;58373;51.824;5.564;2023-03-23T05:55:38;100078.03;;;10.69;91.46
57990;BME280;58373;51.824;5.564;2023-03-23T05:58:04;100084.19;;;10.68;92.03
57990;BME280;58373;51.824;5.564;2023-03-23T06:00:29;100093.06;;;10.65;92.09
57990;BME280;58373;51.824;5.564;2023-03-23T06:02:55;100100.81;;;10.75;91.39
57990;BME280;58373;51.824;5.564;2023-03-23T06:05:21;100099.19;;;10.74;91.64
57990;BME280;58373;51.824;5.564;2023-03-23T06:07:47;100100.66;;;10.76;91.86
57990;BME280;58373;51.824;5.564;2023-03-23T06:10:12;100096.44;;;10.75;91.27
57990;BME280;58373;51.824;5.564;2023-03-23T06:12:38;100097.63;;;10.81;91.47
57990;BME280;58373;51.824;5.564;2023-03-23T06:15:04;100103.41;;;10.75;91.12
57990;BME280;58373;51.824;5.564;2023-03-23T06:17:31;100110.53;;;10.73;91.56
57990;BME280;58373;51.824;5.564;2023-03-23T06:19:56;100112.97;;;10.74;91.66
57990;BME280;58373;51.824;5.564;2023-03-23T06:22:22;100114.59;;;10.75;91.91
57990;BME280;58373;51.824;5.564;2023-03-23T06:24:48;100117.03;;;10.77;91.92
57990;BME280;58373;51.824;5.564;2023-03-23T06:27:14;100121.81;;;10.72;92.43
57990;BME280;58373;51.824;5.564;2023-03-23T06:29:39;100121.41;;;10.76;92.27
57990;BME280;58373;51.824;5.564;2023-03-23T06:32:04;100128.34;;;10.85;92.13
57990;BME280;58373;51.824;5.564;2023-03-23T06:34:30;100119.19;;;10.81;92.02
57990;BME280;58373;51.824;5.564;2023-03-23T06:36:57;100128.19;;;10.87;91.39
57990;BME280;58373;51.824;5.564;2023-03-23T06:39:22;100130.69;;;10.79;92.13
57990;BME280;58373;51.824;5.564;2023-03-23T06:41:48;100133.69;;;10.84;92.02
57990;BME280;58373;51.824;5.564;2023-03-23T06:44:14;100137.78;;;10.77;92.08
57990;BME280;58373;51.824;5.564;2023-03-23T06:46:39;100142.28;;;10.84;91.51
57990;BME280;58373;51.824;5.564;2023-03-23T06:49:06;100148.47;;;10.74;92.08
57990;BME280;58373;51.824;5.564;2023-03-23T06:51:31;100148.47;;;10.74;92.19
57990;BME280;58373;51.824;5.564;2023-03-23T06:53:56;100153.25;;;10.69;92.51
57990;BME280;58373;51.824;5.564;2023-03-23T06:56:22;100156.66;;;10.69;92.61
57990;BME280;58373;51.824;5.564;2023-03-23T06:58:47;100150.56;;;10.88;92.34
57990;BME280;58373;51.824;5.564;2023-03-23T07:01:13;100159.91;;;10.71;93.25
57990;BME280;58373;51.824;5.564;2023-03-23T07:03:40;100157.28;;;10.81;93.32
57990;BME280;58373;51.824;5.564;2023-03-23T07:06:06;100162.41;;;10.63;93.69
57990;BME280;58373;51.824;5.564;2023-03-23T07:08:31;100162.69;;;10.60;94.02
57990;BME280;58373;51.824;5.564;2023-03-23T07:10:56;100161.31;;;10.66;94.34
57990;BME280;58373;51.824;5.564;2023-03-23T12:22:58;100279.78;;;13.44;76.30
57990;BME280;58373;51.824;5.564;2023-03-23T12:30:34;100299.34;;;13.48;72.82
57990;BME280;58373;51.824;5.564;2023-03-23T12:38:04;100296.41;;;13.51;72.36
57990;BME280;58373;51.824;5.564;2023-03-23T12:40:35;100303.50;;;13.41;73.29
57990;BME280;58373;51.824;5.564;2023-03-23T12:43:19;100312.47;;;13.38;73.58
57990;BME280;58373;51.824;5.564;2023-03-23T12:48:19;100294.81;;;12.98;75.32
57990;BME280;58373;51.824;5.564;2023-03-23T12:51:09;100288.06;;;12.87;75.08
57990;BME280;58373;51.824;5.564;2023-03-23T12:53:38;100312.13;;;12.63;76.46
57990;BME280;58373;51.824;5.564;2023-03-23T12:56:53;100314.75;;;12.45;77.63
57990;BME280;58373;51.824;5.564;2023-03-23T12:58:55;100301.78;;;12.28;80.24
57990;BME280;58373;51.824;5.564;2023-03-23T13:01:28;100306.66;;;12.13;81.47
57990;BME280;58373;51.824;5.564;2023-03-23T13:06:32;100284.59;;;11.72;83.21
57990;BME280;58373;51.824;5.564;2023-03-23T13:11:37;100309.22;;;11.67;84.50
57990;BME280;58373;51.824;5.564;2023-03-23T13:14:12;100313.84;;;11.74;84.88
57990;BME280;58373;51.824;5.564;2023-03-23T13:22:05;100297.44;;;12.18;86.72
57990;BME280;58373;51.824;5.564;2023-03-23T13:24:33;100307.56;;;12.21;87.36
57990;BME280;58373;51.824;5.564;2023-03-23T13:27:00;100293.28;;;12.26;86.97
57990;BME280;58373;51.824;5.564;2023-03-23T13:29:26;100291.38;;;12.28;87.79
57990;BME280;58373;51.824;5.564;2023-03-23T13:31:52;100289.59;;;12.28;88.02
57990;BME280;58373;51.824;5.564;2023-03-23T13:34:29;100289.13;;;12.33;88.03
57990;BME280;58373;51.824;5.564;2023-03-23T13:39:24;100296.47;;;12.37;88.08
57990;BME280;58373;51.824;5.564;2023-03-23T13:47:17;100289.47;;;12.56;85.74
57990;BME280;58373;51.824;5.564;2023-03-23T13:49:59;100293.72;;;12.57;85.71
57990;BME280;58373;51.824;5.564;2023-03-23T13:55:48;100285.19;;;12.72;84.58
57990;BME280;58373;51.824;5.564;2023-03-23T14:10:57;100300.31;;;12.69;76.50
57990;BME280;58373;51.824;5.564;2023-03-23T14:16:00;100304.94;;;12.57;78.61
57990;BME280;58373;51.824;5.564;2023-03-23T14:18:30;100297.19;;;12.65;78.59
57990;BME280;58373;51.824;5.564;2023-03-23T14:20:57;100297.59;;;12.79;78.63
57990;BME280;58373;51.824;5.564;2023-03-23T14:23:22;100290.22;;;12.92;78.04
57990;BME280;58373;51.824;5.564;2023-03-23T14:25:55;100286.00;;;12.91;78.73
57990;BME280;58373;51.824;5.564;2023-03-23T14:28:21;100300.03;;;12.98;78.37
57990;BME280;58373;51.824;5.564;2023-03-23T14:30:47;100288.66;;;13.07;77.57
57990;BME280;58373;51.824;5.564;2023-03-23T14:33:13;100301.56;;;13.09;77.95
57990;BME280;58373;51.824;5.564;2023-03-23T14:35:40;100305.94;;;13.08;77.78
57990;BME280;58373;51.824;5.564;2023-03-23T14:38:06;100291.34;;;13.15;77.13
57990;BME280;58373;51.824;5.564;2023-03-23T14:40:37;100287.22;;;13.13;77.29
57990;BME280;58373;51.824;5.564;2023-03-23T14:43:03;100258.13;;;13.17;77.23
57990;BME280;58373;51.824;5.564;2023-03-23T14:45:30;100249.72;;;13.23;77.08
57990;BME280;58373;51.824;5.564;2023-03-23T14:47:57;100227.91;;;13.24;76.48
57990;BME280;58373;51.824;5.564;2023-03-23T14:50:25;100215.34;;;13.20;77.02
57990;BME280;58373;51.824;5.564;2023-03-23T14:52:51;100200.53;;;13.20;77.89
57990;BME280;58373;51.824;5.564;2023-03-23T14:55:21;100219.44;;;13.22;77.79
57990;BME280;58373;51.824;5.564;2023-03-23T14:57:47;100215.06;;;13.23;77.72
57990;BME280;58373;51.824;5.564;2023-03-23T15:02:38;100206.59;;;13.21;78.27
57990;BME280;58373;51.824;5.564;2023-03-23T15:07:50;100221.44;;;13.28;77.40
57990;BME280;58373;51.824;5.564;2023-03-23T15:10:17;100229.25;;;13.28;77.60
57990;BME280;58373;51.824;5.564;2023-03-23T15:12:44;100246.50;;;13.29;78.40
57990;BME280;58373;51.824;5.564;2023-03-23T15:15:21;100247.00;;;13.33;78.13
57990;BME280;58373;51.824;5.564;2023-03-23T15:17:47;100252.88;;;13.35;77.53
57990;BME280;58373;51.824;5.564;2023-03-23T15:20:26;100257.59;;;13.40;77.59
57990;BME280;58373;51.824;5.564;2023-03-23T15:22:51;100245.22;;;13.42;77.25
57990;BME280;58373;51.824;5.564;2023-03-23T15:25:18;100234.81;;;13.42;76.85
57990;BME280;58373;51.824;5.564;2023-03-23T15:27:49;100220.31;;;13.39;76.95
57990;BME280;58373;51.824;5.564;2023-03-23T15:30:19;100213.66;;;13.37;76.56
57990;BME280;58373;51.824;5.564;2023-03-23T15:32:59;100210.06;;;13.38;75.54
57990;BME280;58373;51.824;5.564;2023-03-23T15:35:25;100191.50;;;13.41;74.22
57990;BME280;58373;51.824;5.564;2023-03-23T15:37:52;100182.34;;;13.28;75.29
57990;BME280;58373;51.824;5.564;2023-03-23T15:40:19;100178.78;;;13.29;74.67
57990;BME280;58373;51.824;5.564;2023-03-23T15:42:46;100187.56;;;13.28;74.71
57990;BME280;58373;51.824;5.564;2023-03-23T15:50:47;100183.03;;;13.39;74.03
57990;BME280;58373;51.824;5.564;2023-03-23T15:52:47;100184.66;;;13.32;74.97
57990;BME280;58373;51.824;5.564;2023-03-23T15:57:44;100211.88;;;13.37;73.65
57990;BME280;58373;51.824;5.564;2023-03-23T16:00:09;100184.31;;;13.26;74.72
57990;BME280;58373;51.824;5.564;2023-03-23T16:02:35;100164.81;;;13.31;74.32
57990;BME280;58373;51.824;5.564;2023-03-23T16:05:01;100173.25;;;13.33;73.58
57990;BME280;58373;51.824;5.564;2023-03-23T16:07:26;100187.09;;;13.25;73.76
57990;BME280;58373;51.824;5.564;2023-03-23T16:09:51;100198.91;;;13.19;73.97
57990;BME280;58373;51.824;5.564;2023-03-23T16:12:19;100202.19;;;13.21;74.52
57990;BME280;58373;51.824;5.564;2023-03-23T16:14:44;100209.34;;;13.19;74.64
57990;BME280;58373;51.824;5.564;2023-03-23T16:17:10;100208.06;;;13.23;74.89
57990;BME280;58373;51.824;5.564;2023-03-23T16:19:37;100204.47;;;13.24;74.68
57990;BME280;58373;51.824;5.564;2023-03-23T16:22:02;100206.59;;;13.21;75.27
57990;BME280;58373;51.824;5.564;2023-03-23T16:24:28;100206.06;;;13.17;74.52
57990;BME280;58373;51.824;5.564;2023-03-23T16:26:53;100198.31;;;13.25;73.60
57990;BME280;58373;51.824;5.564;2023-03-23T16:29:18;100196.66;;;13.24;73.52
57990;BME280;58373;51.824;5.564;2023-03-23T16:31:43;100195.63;;;13.17;74.44
57990;BME280;58373;51.824;5.564;2023-03-23T16:34:08;100204.44;;;13.16;73.00
57990;BME280;58373;51.824;5.564;2023-03-23T16:36:34;100199.22;;;13.16;73.43
57990;BME280;58373;51.824;5.564;2023-03-23T16:38:59;100201.66;;;13.18;73.56
57990;BME280;58373;51.824;5.564;2023-03-23T16:41:24;100205.34;;;13.07;73.97
57990;BME280;58373;51.824;5.564;2023-03-23T16:43:50;100220.31;;;13.05;74.60
57990;BME280;58373;51.824;5.564;2023-03-23T16:46:16;100216.78;;;13.14;73.99
57990;BME280;58373;51.824;5.564;2023-03-23T16:48:41;100235.13;;;13.05;74.58
57990;BME280;58373;51.824;5.564;2023-03-23T16:51:06;100235.59;;;13.00;74.33
57990;BME280;58373;51.824;5.564;2023-03-23T16:53:31;100225.81;;;12.94;75.39
57990;BME280;58373;51.824;5.564;2023-03-23T16:55:57;100225.81;;;12.94;75.06
57990;BME280;58373;51.824;5.564;2023-03-23T16:58:22;100219.25;;;12.90;75.87
57990;BME280;58373;51.824;5.564;2023-03-23T17:00:48;100211.13;;;12.85;76.14
57990;BME280;58373;51.824;5.564;2023-03-23T17:03:14;100216.63;;;12.82;76.00
57990;BME280;58373;51.824;5.564;2023-03-23T17:05:40;100209.81;;;12.81;76.04
57990;BME280;58373;51.824;5.564;2023-03-23T17:08:05;100201.31;;;12.79;76.09
57990;BME280;58373;51.824;5.564;2023-03-23T17:10:31;100210.09;;;12.77;76.50
57990;BME280;58373;51.824;5.564;2023-03-23T17:12:56;100212.03;;;12.75;76.45
57990;BME280;58373;51.824;5.564;2023-03-23T17:15:22;100203.59;;;12.73;76.83
57990;BME280;58373;51.824;5.564;2023-03-23T17:17:49;100211.22;;;12.75;76.41
57990;BME280;58373;51.824;5.564;2023-03-23T17:20:14;100210.72;;;12.71;76.74
57990;BME280;58373;51.824;5.564;2023-03-23T17:22:40;100211.03;;;12.68;77.03
57990;BME280;58373;51.824;5.564;2023-03-23T17:25:05;100200.09;;;12.65;77.29
57990;BME280;58373;51.824;5.564;2023-03-23T17:27:32;100193.44;;;12.62;77.04
57990;BME280;58373;51.824;5.564;2023-03-23T17:29:58;100192.75;;;12.60;77.49
57990;BME280;58373;51.824;5.564;2023-03-23T17:32:23;100198.28;;;12.57;77.88
57990;BME280;58373;51.824;5.564;2023-03-23T17:34:50;100207.06;;;12.56;77.82
57990;BME280;58373;51.824;5.564;2023-03-23T17:37:15;100196.94;;;12.53;77.55
57990;BME280;58373;51.824;5.564;2023-03-23T17:39:40;100198.91;;;12.51;78.04
57990;BME280;58373;51.824;5.564;2023-03-23T17:42:06;100191.38;;;12.48;77.84
57990;BME280;58373;51.824;5.564;2023-03-23T17:44:31;100195.94;;;12.46;78.37
57990;BME280;58373;51.824;5.564;2023-03-23T17:46:57;100190.06;;;12.44;79.23
57990;BME280;58373;51.824;5.564;2023-03-23T17:49:24;100185.16;;;12.41;78.97
57990;BME280;58373;51.824;5.564;2023-03-23T17:51:49;100191.34;;;12.40;78.99
57990;BME280;58373;51.824;5.564;2023-03-23T17:54:15;100189.03;;;12.37;79.59
57990;BME280;58373;51.824;5.564;2023-03-23T17:56:40;100191.63;;;12.37;78.70
57990;BME280;58373;51.824;5.564;2023-03-23T17:59:05;100189.66;;;12.31;79.72
57990;BME280;58373;51.824;5.564;2023-03-23T18:01:31;100191.59;;;12.29;80.83
57990;BME280;58373;51.824;5.564;2023-03-23T18:03:56;100179.56;;;12.28;79.92
57990;BME280;58373;51.824;5.564;2023-03-23T18:06:22;100189.28;;;12.26;80.50
57990;BME280;58373;51.824;5.564;2023-03-23T18:08:47;100182.44;;;12.25;80.72
57990;BME280;58373;51.824;5.564;2023-03-23T18:11:12;100184.41;;;12.22;82.01
57990;BME280;58373;51.824;5.564;2023-03-23T18:13:37;100171.25;;;12.24;82.27
57990;BME280;58373;51.824;5.564;2023-03-23T18:16:03;100169.59;;;12.23;82.31
57990;BME280;58373;51.824;5.564;2023-03-23T18:18:29;100162.63;;;12.23;82.11
57990;BME280;58373;51.824;5.564;2023-03-23T18:23:20;100157.59;;;12.22;81.89
57990;BME280;58373;51.824;5.564;2023-03-23T18:25:45;100161.13;;;12.21;82.09
57990;BME280;58373;51.824;5.564;2023-03-23T18:28:10;100160.31;;;12.20;81.89
57990;BME280;58373;51.824;5.564;2023-03-23T18:30:35;100162.25;;;12.18;83.11
57990;BME280;58373;51.824;5.564;2023-03-23T18:33:01;100159.66;;;12.18;82.68
57990;BME280;58373;51.824;5.564;2023-03-23T18:35:26;100157.06;;;12.18;83.21
57990;BME280;58373;51.824;5.564;2023-03-23T18:37:51;100151.06;;;12.18;83.35
57990;BME280;58373;51.824;5.564;2023-03-23T18:40:16;100155.44;;;12.17;83.62
57990;BME280;58373;51.824;5.564;2023-03-23T18:42:43;100160.63;;;12.17;83.48
57990;BME280;58373;51.824;5.564;2023-03-23T18:45:09;100154.63;;;12.17;84.09
57990;BME280;58373;51.824;5.564;2023-03-23T18:47:35;100137.41;;;12.16;83.50
57990;BME280;58373;51.824;5.564;2023-03-23T18:50:01;100133.00;;;12.16;83.40
57990;BME280;58373;51.824;5.564;2023-03-23T18:52:26;100129.72;;;12.14;84.07
57990;BME280;58373;51.824;5.564;2023-03-23T18:54:54;100132.50;;;12.13;83.80
57990;BME280;58373;51.824;5.564;2023-03-23T18:57:20;100140.44;;;12.11;84.20
57990;BME280;58373;51.824;5.564;2023-03-23T18:59:46;100124.84;;;12.11;83.86
57990;BME280;58373;51.824;5.564;2023-03-23T19:02:11;100121.56;;;12.09;83.85
57990;BME280;58373;51.824;5.564;2023-03-23T19:04:37;100123.22;;;12.10;84.46
57990;BME280;58373;51.824;5.564;2023-03-23T19:07:03;100115.72;;;12.07;84.22
57990;BME280;58373;51.824;5.564;2023-03-23T19:09:28;100109.53;;;12.08;85.21
57990;BME280;58373;51.824;5.564;2023-03-23T19:11:54;100118.03;;;12.10;84.91
57990;BME280;58373;51.824;5.564;2023-03-23T19:14:20;100109.53;;;12.08;84.25
57990;BME280;58373;51.824;5.564;2023-03-23T19:16:45;100111.16;;;12.09;84.00
57990;BME280;58373;51.824;5.564;2023-03-23T19:19:11;100100.78;;;12.09;84.15
57990;BME280;58373;51.824;5.564;2023-03-23T19:21:36;100112.81;;;12.10;84.26